Time;durP1;ratioP1;P1;durP2;ratioP2;P2;SDS_P1;SDS_P2;PMS_P1;PMS_P2;Temp;Humidity;BMP_temperature;BMP_pressure;BME280_temperature;BME280_humidity;BME280_pressure;Samples;Min_cycle;Max_cycle;Signal;HPM_P1;HPM_P2
2022/12/28 00:01:06;;;;;;;13.17;5.03;;;;;;;;;;5038530;28;20588;-71
2022/12/28 00:03:31;;;;;;;14.73;4.60;;;;;;;;;;5057035;28;20186;-69
2022/12/28 00:05:57;;;;;;;9.23;3.57;;;;;;;;;;5058245;28;20194;-71
2022/12/28 00:08:23;;;;;;;10.43;3.57;;;;;;;;;;5062999;28;20242;-71
2022/12/28 00:10:49;;;;;;;6.23;3.03;;;;;;;;;;5070713;28;20174;-69
2022/12/28 00:13:16;;;;;;;7.27;2.60;;;;;;;;;;5070672;28;20179;-72
2022/12/28 00:15:42;;;;;;;7.83;2.40;;;;;;;;;;5063909;28;20292;-72
2022/12/28 00:18:07;;;;;;;4.97;2.60;;;;;;;;;;5057855;28;20182;-70
2022/12/28 00:20:33;;;;;;;11.33;3.23;;;;;;;;;;5055322;28;20179;-72
2022/12/28 00:22:59;;;;;;;6.07;2.90;;;;;;;;;;5055726;28;20658;-70
2022/12/28 00:25:25;;;;;;;9.50;3.40;;;;;;;;;;5054691;28;20676;-69
2022/12/28 00:27:51;;;;;;;5.90;2.87;;;;;;;;;;5054167;28;20189;-69
2022/12/28 00:30:17;;;;;;;8.97;3.07;;;;;;;;;;5053785;28;20646;-69
2022/12/28 00:32:43;;;;;;;8.47;3.17;;;;;;;;;;5055179;28;20232;-70
2022/12/28 00:35:09;;;;;;;5.13;2.77;;;;;;;;;;5054363;28;20616;-70
2022/12/28 00:37:35;;;;;;;8.83;2.63;;;;;;;;;;5053682;28;20244;-69
2022/12/28 00:40:01;;;;;;;9.50;3.13;;;;;;;;;;5054938;28;20171;-69
2022/12/28 00:42:27;;;;;;;7.13;3.13;;;;;;;;;;5054986;28;20664;-68
2022/12/28 00:44:53;;;;;;;7.43;3.63;;;;;;;;;;5054930;28;20565;-70
2022/12/28 00:47:19;;;;;;;11.17;3.40;;;;;;;;;;5053128;28;20654;-71
2022/12/28 00:49:45;;;;;;;7.57;3.20;;;;;;;;;;5054905;28;20718;-71
2022/12/28 00:52:11;;;;;;;9.90;3.10;;;;;;;;;;5054595;28;20642;-70
2022/12/28 00:54:37;;;;;;;7.90;3.67;;;;;;;;;;5054256;28;20642;-70
2022/12/28 00:57:03;;;;;;;6.70;3.43;;;;;;;;;;5054622;28;20193;-71
2022/12/28 00:59:28;;;;;;;11.23;4.47;;;;;;;;;;5054846;28;20205;-71
2022/12/28 01:01:54;;;;;;;11.03;4.80;;;;;;;;;;5052783;28;20174;-70
2022/12/28 01:04:20;;;;;;;10.77;5.17;;;;;;;;;;5054475;28;20600;-69
2022/12/28 01:06:46;;;;;;;13.57;4.70;;;;;;;;;;5054954;28;20182;-69
2022/12/28 01:09:12;;;;;;;12.03;5.20;;;;;;;;;;5054324;28;20190;-69
2022/12/28 01:11:38;;;;;;;14.57;5.90;;;;;;;;;;5054070;28;20224;-69
2022/12/28 01:14:04;;;;;;;13.47;6.00;;;;;;;;;;5054623;28;20182;-69
2022/12/28 01:16:34;;;;;;;12.53;6.20;;;;;;;;;;5054309;28;20214;-69
2022/12/28 01:19:02;;;;;;;12.67;5.90;;;;;;;;;;5052852;28;20174;-70
2022/12/28 01:21:30;;;;;;;10.77;5.27;;;;;;;;;;5053035;28;20182;-70
2022/12/28 01:23:57;;;;;;;15.47;5.97;;;;;;;;;;5054570;28;20361;-70
2022/12/28 01:26:24;;;;;;;12.33;4.93;;;;;;;;;;5064095;28;20248;-72
2022/12/28 01:28:50;;;;;;;10.07;4.77;;;;;;;;;;5071518;28;20660;-70
2022/12/28 01:31:17;;;;;;;9.50;4.20;;;;;;;;;;5070703;28;20233;-70
2022/12/28 01:33:43;;;;;;;14.47;4.33;;;;;;;;;;5068523;28;20324;-68
2022/12/28 01:36:12;;;;;;;12.03;3.93;;;;;;;;;;5070241;28;20210;-68
2022/12/28 01:38:38;;;;;;;9.63;4.23;;;;;;;;;;5060895;28;20182;-71
2022/12/28 01:41:12;;;;;;;8.67;3.80;;;;;;;;;;5054950;28;20179;-70
2022/12/28 01:43:42;;;;;;;14.00;4.80;;;;;;;;;;5054163;28;20170;-70
2022/12/28 01:46:16;;;;;;;10.03;4.33;;;;;;;;;;5053516;28;20209;-70
2022/12/28 01:48:45;;;;;;;9.87;4.03;;;;;;;;;;5054120;28;20165;-69
2022/12/28 01:51:11;;;;;;;11.87;4.33;;;;;;;;;;5053769;28;20178;-70
2022/12/28 01:53:37;;;;;;;6.70;4.37;;;;;;;;;;5053568;28;20551;-70
2022/12/28 01:56:04;;;;;;;12.00;4.47;;;;;;;;;;5053328;28;20293;-70
2022/12/28 01:58:30;;;;;;;7.27;4.17;;;;;;;;;;5052537;28;20189;-71
2022/12/28 02:00:57;;;;;;;9.93;3.83;;;;;;;;;;5054013;28;20179;-70
2022/12/28 02:03:25;;;;;;;8.97;4.07;;;;;;;;;;5053775;28;20171;-70
2022/12/28 02:05:53;;;;;;;8.27;3.80;;;;;;;;;;5054052;28;20210;-70
2022/12/28 02:08:38;;;;;;;12.07;3.33;;;;;;;;;;5053697;28;20179;-71
2022/12/28 02:11:04;;;;;;;7.30;3.37;;;;;;;;;;5053891;28;20175;-71
2022/12/28 02:13:31;;;;;;;7.60;3.40;;;;;;;;;;5056532;28;20174;-72
2022/12/28 02:15:57;;;;;;;9.00;2.93;;;;;;;;;;5057288;28;20214;-71
2022/12/28 02:18:24;;;;;;;5.43;3.13;;;;;;;;;;5057420;28;20539;-71
2022/12/28 02:20:55;;;;;;;9.07;3.20;;;;;;;;;;5058033;28;20522;-71
2022/12/28 02:23:39;;;;;;;6.90;2.50;;;;;;;;;;5057477;28;20254;-71
2022/12/28 02:26:05;;;;;;;4.67;2.50;;;;;;;;;;5057563;28;20256;-71
2022/12/28 02:28:37;;;;;;;5.53;2.37;;;;;;;;;;5058204;28;20182;-71
2022/12/28 02:31:17;;;;;;;8.73;3.03;;;;;;;;;;5057094;28;20178;-71
2022/12/28 02:34:00;;;;;;;4.23;2.10;;;;;;;;;;5057240;28;20170;-71
2022/12/28 02:36:28;;;;;;;5.53;2.57;;;;;;;;;;5056975;28;20206;-70
2022/12/28 02:39:01;;;;;;;6.13;2.77;;;;;;;;;;5057176;28;20225;-72
2022/12/28 02:41:28;;;;;;;4.10;2.83;;;;;;;;;;5057141;28;20216;-71
2022/12/28 02:43:54;;;;;;;6.20;2.47;;;;;;;;;;5055605;28;20217;-68
2022/12/28 02:52:37;;;;;;;5.53;2.50;;;;;;;;;;5051737;28;20727;-70
2022/12/28 02:58:16;;;;;;;2.90;2.47;;;;;;;;;;5056472;28;20305;-70
2022/12/28 03:00:48;;;;;;;9.43;3.27;;;;;;;;;;5056380;28;20174;-70
2022/12/28 03:03:14;;;;;;;6.73;2.83;;;;;;;;;;5055260;28;20554;-71
2022/12/28 03:08:37;;;;;;;4.40;2.67;;;;;;;;;;5056413;28;20220;-71
2022/12/28 03:11:03;;;;;;;5.23;2.37;;;;;;;;;;5056599;28;20207;-71
2022/12/28 03:13:43;;;;;;;10.77;2.60;;;;;;;;;;5056484;28;20199;-71
2022/12/28 03:16:29;;;;;;;4.30;2.43;;;;;;;;;;5054816;28;20235;-69
2022/12/28 03:32:56;;;;;;;3.20;2.37;;;;;;;;;;5056371;28;20182;-71
2022/12/28 03:35:25;;;;;;;3.07;2.20;;;;;;;;;;5055988;28;20213;-71
2022/12/28 03:38:00;;;;;;;6.37;2.87;;;;;;;;;;5054723;28;20232;-71
2022/12/28 03:40:38;;;;;;;5.03;2.47;;;;;;;;;;5056029;28;20207;-71
2022/12/28 03:45:57;;;;;;;3.60;2.17;;;;;;;;;;5055934;28;20701;-71
2022/12/28 03:48:23;;;;;;;3.80;2.50;;;;;;;;;;5055940;28;20183;-71
2022/12/28 03:50:50;;;;;;;3.10;2.47;;;;;;;;;;5054634;28;20179;-71
2022/12/28 03:53:19;;;;;;;3.97;2.47;;;;;;;;;;5054562;28;20179;-72
2022/12/28 03:55:45;;;;;;;4.20;2.70;;;;;;;;;;5055421;28;20241;-72
2022/12/28 03:58:11;;;;;;;4.27;2.70;;;;;;;;;;5054093;28;20252;-72
2022/12/28 04:00:36;;;;;;;4.30;2.30;;;;;;;;;;5055985;28;20242;-71
2022/12/28 04:03:02;;;;;;;7.40;2.80;;;;;;;;;;5054216;28;20643;-72
2022/12/28 04:05:28;;;;;;;4.90;2.33;;;;;;;;;;5054133;28;20210;-71
2022/12/28 04:07:54;;;;;;;3.37;2.33;;;;;;;;;;5054093;28;20179;-69
2022/12/28 04:10:20;;;;;;;3.07;2.00;;;;;;;;;;5053956;28;20186;-71
2022/12/28 04:12:46;;;;;;;5.27;2.80;;;;;;;;;;5055193;28;20554;-71
2022/12/28 04:15:12;;;;;;;2.93;2.10;;;;;;;;;;5054976;28;20202;-69
2022/12/28 04:17:38;;;;;;;4.10;2.33;;;;;;;;;;5053703;28;20343;-70
2022/12/28 04:20:05;;;;;;;3.10;2.13;;;;;;;;;;5055093;28;20178;-71
2022/12/28 04:22:30;;;;;;;5.43;2.40;;;;;;;;;;5055044;28;20175;-72
2022/12/28 04:24:56;;;;;;;3.93;2.13;;;;;;;;;;5055034;28;20201;-71
2022/12/28 04:27:23;;;;;;;4.73;2.67;;;;;;;;;;5053741;28;20186;-70
2022/12/28 04:29:49;;;;;;;4.67;2.47;;;;;;;;;;5053752;28;20186;-70
2022/12/28 04:32:15;;;;;;;5.80;2.50;;;;;;;;;;5055460;28;20178;-71
2022/12/28 04:34:40;;;;;;;3.23;2.37;;;;;;;;;;5054731;28;20629;-70
2022/12/28 04:37:09;;;;;;;6.47;2.60;;;;;;;;;;5054942;28;20202;-70
2022/12/28 04:39:35;;;;;;;3.00;2.53;;;;;;;;;;5054797;28;20179;-70
2022/12/28 04:42:01;;;;;;;4.90;2.57;;;;;;;;;;5054932;28;20210;-71
2022/12/28 04:44:27;;;;;;;5.60;2.80;;;;;;;;;;5054734;28;20174;-69
2022/12/28 04:46:53;;;;;;;5.70;3.10;;;;;;;;;;5055274;28;20186;-69
2022/12/28 04:49:19;;;;;;;4.37;2.83;;;;;;;;;;5054605;28;20189;-70
2022/12/28 04:51:45;;;;;;;4.20;2.70;;;;;;;;;;5053525;28;20268;-67
2022/12/28 04:54:14;;;;;;;6.33;3.13;;;;;;;;;;5053547;28;20206;-68
2022/12/28 04:56:39;;;;;;;4.83;3.40;;;;;;;;;;5054356;28;20588;-69
2022/12/28 04:59:06;;;;;;;7.63;3.37;;;;;;;;;;5054612;28;20171;-70
2022/12/28 05:01:31;;;;;;;3.70;2.97;;;;;;;;;;5054297;28;20544;-72
2022/12/28 05:03:58;;;;;;;5.10;2.90;;;;;;;;;;5054992;28;20235;-70
2022/12/28 05:06:26;;;;;;;4.30;2.70;;;;;;;;;;5053106;28;20202;-69
2022/12/28 05:08:52;;;;;;;4.53;2.80;;;;;;;;;;5053030;28;20727;-70
2022/12/28 05:11:22;;;;;;;3.40;2.73;;;;;;;;;;5054634;28;20243;-70
2022/12/28 05:13:48;;;;;;;2.30;2.00;;;;;;;;;;5053290;28;20215;-69
2022/12/28 05:16:16;;;;;;;6.80;2.90;;;;;;;;;;5054282;28;20209;-70
2022/12/28 05:18:43;;;;;;;3.60;2.63;;;;;;;;;;5053506;28;20270;-70
2022/12/28 05:21:11;;;;;;;7.30;3.00;;;;;;;;;;5053433;28;20182;-70
2022/12/28 05:23:37;;;;;;;7.00;2.77;;;;;;;;;;5062952;28;20175;-70
2022/12/28 05:26:04;;;;;;;4.93;2.70;;;;;;;;;;5072121;28;20677;-69
2022/12/28 05:28:30;;;;;;;4.57;2.87;;;;;;;;;;5067447;28;20177;-69
2022/12/28 05:31:00;;;;;;;8.97;2.70;;;;;;;;;;5067027;28;20182;-71
2022/12/28 05:33:27;;;;;;;5.17;2.50;;;;;;;;;;5065220;28;20183;-70
2022/12/28 05:35:53;;;;;;;4.17;2.60;;;;;;;;;;5065128;28;20739;-71
2022/12/28 05:38:19;;;;;;;6.30;2.53;;;;;;;;;;5066049;28;20174;-71
2022/12/28 05:40:45;;;;;;;4.27;3.07;;;;;;;;;;5066487;28;20200;-70
2022/12/28 05:43:11;;;;;;;5.60;2.93;;;;;;;;;;5065162;28;20178;-71
2022/12/28 05:45:37;;;;;;;5.57;2.90;;;;;;;;;;5052879;28;20201;-68
2022/12/28 05:48:03;;;;;;;6.07;2.80;;;;;;;;;;5056003;28;20184;-70
2022/12/28 05:50:29;;;;;;;4.33;2.57;;;;;;;;;;5058386;28;20601;-70
2022/12/28 05:52:55;;;;;;;4.70;3.33;;;;;;;;;;5058047;28;20204;-71
2022/12/28 05:55:20;;;;;;;7.87;3.30;;;;;;;;;;5056624;28;20624;-70
2022/12/28 05:57:46;;;;;;;4.20;3.10;;;;;;;;;;5058343;28;20202;-69
2022/12/28 06:00:13;;;;;;;4.80;3.13;;;;;;;;;;5056746;28;20711;-70
2022/12/28 06:02:38;;;;;;;6.33;3.20;;;;;;;;;;5057774;28;20668;-69
2022/12/28 06:05:05;;;;;;;5.00;3.40;;;;;;;;;;5057770;28;20273;-69
2022/12/28 06:07:31;;;;;;;4.60;3.13;;;;;;;;;;5057712;28;20231;-69
2022/12/28 06:09:57;;;;;;;7.87;3.20;;;;;;;;;;5057238;28;20599;-69
2022/12/28 06:12:22;;;;;;;8.00;3.40;;;;;;;;;;5057048;28;20204;-68
2022/12/28 06:14:48;;;;;;;3.87;3.00;;;;;;;;;;5057693;28;20221;-68
2022/12/28 06:17:14;;;;;;;6.97;3.40;;;;;;;;;;5057642;28;20229;-69
2022/12/28 06:19:40;;;;;;;8.50;3.53;;;;;;;;;;5057271;28;20605;-69
2022/12/28 06:22:06;;;;;;;5.23;3.53;;;;;;;;;;5057754;28;20654;-69
2022/12/28 06:24:32;;;;;;;8.37;3.70;;;;;;;;;;5056132;28;20186;-70
2022/12/28 06:26:58;;;;;;;10.40;3.60;;;;;;;;;;5057161;28;20186;-69
2022/12/28 06:29:24;;;;;;;5.23;3.60;;;;;;;;;;5055855;28;20667;-69
2022/12/28 06:31:52;;;;;;;9.93;3.97;;;;;;;;;;5055652;28;20178;-69
2022/12/28 06:34:18;;;;;;;10.23;4.20;;;;;;;;;;5055978;28;20638;-69
2022/12/28 06:36:44;;;;;;;6.10;3.53;;;;;;;;;;5055644;28;20230;-69
2022/12/28 06:39:11;;;;;;;5.97;3.73;;;;;;;;;;5055426;28;20179;-69
2022/12/28 06:41:38;;;;;;;5.57;3.73;;;;;;;;;;5056796;28;20175;-69
2022/12/28 06:44:08;;;;;;;6.87;3.33;;;;;;;;;;5055433;28;20185;-69
2022/12/28 06:46:34;;;;;;;5.00;3.43;;;;;;;;;;5057260;28;20680;-69
2022/12/28 06:49:00;;;;;;;9.23;3.60;;;;;;;;;;5057455;28;20190;-69
2022/12/28 06:51:31;;;;;;;9.07;3.90;;;;;;;;;;5056956;28;20174;-69
2022/12/28 06:53:57;;;;;;;5.30;3.67;;;;;;;;;;5056815;28;20178;-69
2022/12/28 06:56:27;;;;;;;7.00;3.50;;;;;;;;;;5055162;28;20251;-69
2022/12/28 06:58:53;;;;;;;10.13;4.00;;;;;;;;;;5054872;28;20166;-69
2022/12/28 07:01:24;;;;;;;4.80;3.37;;;;;;;;;;5056567;28;20257;-70
2022/12/28 07:03:51;;;;;;;7.60;4.10;;;;;;;;;;5056267;28;20170;-70
2022/12/28 07:06:18;;;;;;;7.73;3.30;;;;;;;;;;5054635;28;20206;-69
2022/12/28 07:08:44;;;;;;;6.90;3.60;;;;;;;;;;5056157;28;20721;-69
2022/12/28 07:11:14;;;;;;;5.63;3.70;;;;;;;;;;5055969;28;20206;-69
2022/12/28 07:13:41;;;;;;;4.70;3.50;;;;;;;;;;5054574;28;20225;-69
2022/12/28 07:16:09;;;;;;;5.23;3.57;;;;;;;;;;5055626;28;20198;-70
2022/12/28 07:18:36;;;;;;;6.33;3.70;;;;;;;;;;5055608;28;20202;-69
2022/12/28 07:21:06;;;;;;;8.80;4.00;;;;;;;;;;5055572;28;20178;-70
2022/12/28 07:23:33;;;;;;;11.50;4.07;;;;;;;;;;5054510;28;20193;-70
2022/12/28 07:26:04;;;;;;;7.17;3.90;;;;;;;;;;5055592;28;20198;-70
2022/12/28 07:28:30;;;;;;;9.87;3.83;;;;;;;;;;5054057;28;20528;-70
2022/12/28 07:30:56;;;;;;;4.20;3.53;;;;;;;;;;5054028;28;20174;-70
2022/12/28 07:33:22;;;;;;;6.53;3.87;;;;;;;;;;5055671;28;20724;-70
2022/12/28 07:35:48;;;;;;;6.03;3.30;;;;;;;;;;5054467;28;20205;-71
2022/12/28 07:38:14;;;;;;;5.00;2.83;;;;;;;;;;5056397;28;20205;-73
2022/12/28 07:40:40;;;;;;;5.93;3.63;;;;;;;;;;5055256;28;20228;-70
2022/12/28 07:43:06;;;;;;;8.80;3.27;;;;;;;;;;5053878;28;20174;-69
2022/12/28 07:45:32;;;;;;;5.43;3.80;;;;;;;;;;5054036;28;20202;-71
2022/12/28 07:47:58;;;;;;;5.43;3.83;;;;;;;;;;5054622;28;20273;-72
2022/12/28 07:50:24;;;;;;;6.73;3.10;;;;;;;;;;5055363;28;20281;-72
2022/12/28 07:52:50;;;;;;;3.30;3.00;;;;;;;;;;5055092;28;20661;-72
2022/12/28 07:55:16;;;;;;;5.73;2.83;;;;;;;;;;5054102;28;20284;-72
2022/12/28 07:57:42;;;;;;;8.13;2.90;;;;;;;;;;5056548;28;20213;-72
2022/12/28 08:00:08;;;;;;;4.83;2.87;;;;;;;;;;5054829;28;20609;-72
2022/12/28 08:02:34;;;;;;;4.00;2.77;;;;;;;;;;5056061;28;20189;-72
2022/12/28 08:05:00;;;;;;;6.63;2.97;;;;;;;;;;5056233;28;20198;-72
2022/12/28 08:07:26;;;;;;;3.13;2.67;;;;;;;;;;5054685;28;20189;-72
2022/12/28 08:09:52;;;;;;;3.03;2.43;;;;;;;;;;5054452;28;20575;-72
2022/12/28 08:12:18;;;;;;;5.30;2.43;;;;;;;;;;5055670;28;20179;-72
2022/12/28 08:14:44;;;;;;;4.37;2.80;;;;;;;;;;5054473;28;20186;-72
2022/12/28 08:17:10;;;;;;;5.63;2.33;;;;;;;;;;5055557;28;20202;-72
2022/12/28 08:19:36;;;;;;;2.23;2.03;;;;;;;;;;5055553;28;20205;-72
2022/12/28 08:22:02;;;;;;;3.87;2.20;;;;;;;;;;5053742;28;20269;-72
2022/12/28 08:24:28;;;;;;;4.90;2.30;;;;;;;;;;5054033;28;20178;-72
2022/12/28 08:26:54;;;;;;;3.63;2.17;;;;;;;;;;5055102;28;20231;-72
2022/12/28 08:29:21;;;;;;;4.77;2.23;;;;;;;;;;5054665;28;20253;-72
2022/12/28 08:31:47;;;;;;;6.20;1.93;;;;;;;;;;5055015;28;20178;-73
2022/12/28 08:34:14;;;;;;;2.80;1.90;;;;;;;;;;5053618;28;20194;-72
2022/12/28 08:36:41;;;;;;;3.87;1.80;;;;;;;;;;5054438;28;20750;-72
2022/12/28 08:39:08;;;;;;;3.03;1.70;;;;;;;;;;5053281;28;20685;-72
2022/12/28 08:41:34;;;;;;;4.13;1.90;;;;;;;;;;5054567;28;20178;-72
2022/12/28 08:44:00;;;;;;;3.77;2.50;;;;;;;;;;5055021;28;20174;-72
2022/12/28 08:46:28;;;;;;;1.90;1.60;;;;;;;;;;5054900;28;20198;-72
2022/12/28 08:48:55;;;;;;;5.07;2.10;;;;;;;;;;5053478;28;20247;-72
2022/12/28 08:51:25;;;;;;;2.60;1.90;;;;;;;;;;5053166;28;20191;-72
2022/12/28 08:53:51;;;;;;;3.37;1.63;;;;;;;;;;5054701;28;20166;-72
2022/12/28 08:56:17;;;;;;;4.43;1.90;;;;;;;;;;5054130;28;20217;-72
2022/12/28 08:58:44;;;;;;;3.57;2.00;;;;;;;;;;5053265;28;20190;-71
2022/12/28 09:01:11;;;;;;;2.70;1.90;;;;;;;;;;5053905;28;20600;-72
2022/12/28 09:03:38;;;;;;;3.47;1.70;;;;;;;;;;5052632;28;20257;-72
2022/12/28 09:06:05;;;;;;;2.00;1.80;;;;;;;;;;5052261;28;20194;-72
2022/12/28 09:08:31;;;;;;;3.33;2.10;;;;;;;;;;5053924;28;20175;-72
2022/12/28 09:11:01;;;;;;;3.90;2.17;;;;;;;;;;5052450;28;20174;-72
2022/12/28 09:13:27;;;;;;;3.10;1.90;;;;;;;;;;5053588;28;20181;-72
2022/12/28 09:16:01;;;;;;;3.30;1.90;;;;;;;;;;5052476;28;20576;-72
2022/12/28 09:18:27;;;;;;;4.00;1.83;;;;;;;;;;5058185;28;20236;-72
2022/12/28 09:20:54;;;;;;;3.87;2.07;;;;;;;;;;5065518;28;20178;-72
2022/12/28 09:23:20;;;;;;;4.73;2.10;;;;;;;;;;5065024;28;20185;-71
2022/12/28 09:25:46;;;;;;;5.70;1.80;;;;;;;;;;5064347;28;20243;-71
2022/12/28 09:28:12;;;;;;;2.33;1.70;;;;;;;;;;5064788;28;20246;-72
2022/12/28 09:30:39;;;;;;;3.40;1.80;;;;;;;;;;5054876;28;20181;-71
2022/12/28 09:35:49;;;;;;;2.87;1.70;;;;;;;;;;5054127;28;20259;-71
2022/12/28 09:38:15;;;;;;;2.37;1.47;;;;;;;;;;5053789;28;20654;-70
2022/12/28 09:40:41;;;;;;;2.50;1.95;;;;;;;;;;5052099;28;20800;-72
2022/12/28 09:43:09;;;;;;;3.63;1.80;;;;;;;;;;5050899;28;20386;-72
2022/12/28 09:45:35;;;;;;;3.33;1.57;;;;;;;;;;5053461;28;20739;-69
2022/12/28 09:48:08;;;;;;;3.43;1.60;;;;;;;;;;5052214;28;20186;-70
2022/12/28 09:50:34;;;;;;;1.50;1.40;;;;;;;;;;5052126;28;20278;-69
2022/12/28 09:53:03;;;;;;;1.40;1.30;;;;;;;;;;5053639;28;20706;-69
2022/12/28 09:55:29;;;;;;;1.77;1.30;;;;;;;;;;5051896;28;20304;-69
2022/12/28 09:57:56;;;;;;;2.43;1.40;;;;;;;;;;5052115;28;20203;-71
2022/12/28 10:00:30;;;;;;;3.67;1.53;;;;;;;;;;5053286;28;20615;-71
2022/12/28 10:02:58;;;;;;;4.07;1.90;;;;;;;;;;5053698;28;20165;-71
2022/12/28 10:05:24;;;;;;;2.73;1.40;;;;;;;;;;5051908;28;20195;-70
2022/12/28 10:07:51;;;;;;;1.53;1.43;;;;;;;;;;5051831;28;20190;-69
2022/12/28 10:10:19;;;;;;;3.28;1.80;;;;;;;;;;5052283;28;20385;-71
2022/12/28 10:12:46;;;;;;;2.67;1.63;;;;;;;;;;5052114;28;20381;-72
2022/12/28 10:15:13;;;;;;;2.43;1.53;;;;;;;;;;5053328;28;20221;-72
2022/12/28 10:17:39;;;;;;;1.50;1.40;;;;;;;;;;5051798;28;20593;-71
2022/12/28 10:20:09;;;;;;;3.73;1.60;;;;;;;;;;5051978;28;20546;-72
2022/12/28 10:22:38;;;;;;;2.00;1.50;;;;;;;;;;5053862;28;20181;-72
2022/12/28 10:25:20;;;;;;;1.40;1.30;;;;;;;;;;5052839;28;20222;-71
2022/12/28 10:27:47;;;;;;;3.03;2.70;;;;;;;;;;5053267;28;20279;-71
2022/12/28 10:30:20;;;;;;;2.20;1.83;;;;;;;;;;5053531;28;20187;-72
2022/12/28 10:32:53;;;;;;;2.23;1.90;;;;;;;;;;5052983;28;20185;-71
2022/12/28 10:35:23;;;;;;;2.07;1.73;;;;;;;;;;5057950;28;20202;-71
2022/12/28 10:37:49;;;;;;;1.83;1.40;;;;;;;;;;5055950;28;20289;-71
2022/12/28 10:40:22;;;;;;;2.00;1.80;;;;;;;;;;5056829;28;20673;-71
2022/12/28 10:42:51;;;;;;;4.93;2.80;;;;;;;;;;5057150;28;20159;-72
2022/12/28 10:45:18;;;;;;;2.10;1.40;;;;;;;;;;5057238;28;20194;-72
2022/12/28 10:47:52;;;;;;;5.17;3.40;;;;;;;;;;5056682;28;20189;-72
2022/12/28 10:50:38;;;;;;;5.77;4.03;;;;;;;;;;5055266;28;20186;-72
2022/12/28 10:53:05;;;;;;;3.13;2.20;;;;;;;;;;5055330;28;20182;-72
2022/12/28 10:55:32;;;;;;;2.73;1.60;;;;;;;;;;5054903;28;20233;-74
2022/12/28 10:58:15;;;;;;;4.10;1.80;;;;;;;;;;5056160;28;20198;-75
2022/12/28 11:00:41;;;;;;;2.53;1.57;;;;;;;;;;5056323;28;20206;-72
2022/12/28 11:03:17;;;;;;;3.70;1.90;;;;;;;;;;5056457;28;20217;-72
2022/12/28 11:05:43;;;;;;;3.17;1.63;;;;;;;;;;5056497;28;20201;-72
2022/12/28 11:08:11;;;;;;;2.37;1.40;;;;;;;;;;5056335;28;20182;-72
2022/12/28 11:10:39;;;;;;;3.60;1.60;;;;;;;;;;5057264;28;20265;-72
2022/12/28 11:13:08;;;;;;;1.50;1.40;;;;;;;;;;5056609;28;20182;-72
2022/12/28 11:15:34;;;;;;;4.17;1.40;;;;;;;;;;5057373;28;20206;-71
2022/12/28 11:18:06;;;;;;;3.37;1.80;;;;;;;;;;5065502;28;20201;-71
2022/12/28 11:20:36;;;;;;;4.73;1.70;;;;;;;;;;5069934;28;20163;-71
2022/12/28 11:23:05;;;;;;;2.00;1.53;;;;;;;;;;5067494;28;20239;-71
2022/12/28 11:25:33;;;;;;;1.67;1.57;;;;;;;;;;5066296;28;20281;-71
2022/12/28 11:27:59;;;;;;;2.10;1.90;;;;;;;;;;5054646;28;20185;-71
2022/12/28 11:30:25;;;;;;;4.67;3.20;;;;;;;;;;5056712;28;20701;-72
2022/12/28 11:32:56;;;;;;;3.30;2.20;;;;;;;;;;5055777;28;20178;-72
2022/12/28 11:35:24;;;;;;;2.93;1.63;;;;;;;;;;5054322;28;20210;-72
2022/12/28 11:37:54;;;;;;;2.20;1.70;;;;;;;;;;5053955;28;20209;-71
2022/12/28 11:40:38;;;;;;;2.53;1.40;;;;;;;;;;5055410;28;20159;-71
2022/12/28 11:43:04;;;;;;;3.90;1.53;;;;;;;;;;5055524;28;20179;-71
2022/12/28 11:45:49;;;;;;;1.70;1.50;;;;;;;;;;5052973;28;20202;-72
2022/12/28 11:48:34;;;;;;;2.47;1.50;;;;;;;;;;5053953;28;20654;-72
2022/12/28 11:51:03;;;;;;;1.97;1.63;;;;;;;;;;5055188;28;20580;-72
2022/12/28 11:53:32;;;;;;;2.03;1.53;;;;;;;;;;5055112;28;20178;-71
2022/12/28 11:56:19;;;;;;;2.47;1.53;;;;;;;;;;5055721;28;20222;-72
2022/12/28 11:58:54;;;;;;;3.03;1.60;;;;;;;;;;5054607;28;20244;-72
2022/12/28 12:01:29;;;;;;;2.23;1.50;;;;;;;;;;5055990;28;20174;-72
2022/12/28 12:03:58;;;;;;;2.30;1.87;;;;;;;;;;5055915;28;20185;-72
2022/12/28 12:06:45;;;;;;;3.00;1.53;;;;;;;;;;5056223;28;20194;-71
2022/12/28 12:09:20;;;;;;;2.00;1.70;;;;;;;;;;5026340;28;20714;-71
2022/12/28 12:11:47;;;;;;;2.47;1.67;;;;;;;;;;5055118;28;20186;-72
2022/12/28 12:14:14;;;;;;;4.47;1.87;;;;;;;;;;5055984;28;20650;-72
2022/12/28 12:16:47;;;;;;;2.90;1.93;;;;;;;;;;5055166;28;20240;-72
2022/12/28 12:19:20;;;;;;;4.20;1.80;;;;;;;;;;5054217;28;20181;-72
2022/12/28 12:21:52;;;;;;;2.80;2.10;;;;;;;;;;5055887;28;20196;-71
2022/12/28 12:24:29;;;;;;;4.60;2.03;;;;;;;;;;5054295;28;20257;-72
2022/12/28 12:26:57;;;;;;;3.10;1.70;;;;;;;;;;5055828;28;20224;-72
2022/12/28 12:29:37;;;;;;;4.50;1.60;;;;;;;;;;5055909;28;20194;-70
2022/12/28 12:32:05;;;;;;;2.57;1.80;;;;;;;;;;5057393;28;20182;-70
2022/12/28 12:34:42;;;;;;;6.57;2.30;;;;;;;;;;5056835;28;20174;-70
2022/12/28 12:37:27;;;;;;;4.20;2.30;;;;;;;;;;5056596;28;20197;-70
2022/12/28 12:39:53;;;;;;;3.43;1.80;;;;;;;;;;5056021;28;20179;-70
2022/12/28 12:42:28;;;;;;;3.57;1.87;;;;;;;;;;5053655;28;20269;-70
2022/12/28 12:45:02;;;;;;;3.70;3.23;;;;;;;;;;5054627;28;20186;-70
2022/12/28 12:47:34;;;;;;;3.70;2.20;;;;;;;;;;5053765;28;20533;-70
2022/12/28 12:50:11;;;;;;;1.93;1.40;;;;;;;;;;5052880;28;20719;-70
2022/12/28 12:52:42;;;;;;;3.13;1.40;;;;;;;;;;5054063;28;20177;-71
2022/12/28 12:55:16;;;;;;;3.80;2.27;;;;;;;;;;5054304;28;20293;-71
2022/12/28 12:57:47;;;;;;;3.00;1.90;;;;;;;;;;5053652;28;20273;-71
2022/12/28 13:00:15;;;;;;;3.77;1.87;;;;;;;;;;5052797;28;20186;-71
2022/12/28 13:02:48;;;;;;;4.00;1.80;;;;;;;;;;5054468;28;20612;-70
2022/12/28 13:05:19;;;;;;;2.83;2.03;;;;;;;;;;5054640;28;20201;-70
2022/12/28 13:07:45;;;;;;;2.70;1.70;;;;;;;;;;5052942;28;20175;-71
2022/12/28 13:10:32;;;;;;;3.40;2.10;;;;;;;;;;5053910;28;20287;-70
2022/12/28 13:12:59;;;;;;;6.23;2.20;;;;;;;;;;5053721;28;20170;-71
2022/12/28 13:15:25;;;;;;;5.50;2.13;;;;;;;;;;5053547;28;20225;-70
2022/12/28 13:17:58;;;;;;;7.90;2.13;;;;;;;;;;5052346;28;20215;-70
2022/12/28 13:20:24;;;;;;;6.87;2.57;;;;;;;;;;5052985;28;20236;-71
2022/12/28 13:22:50;;;;;;;6.37;2.73;;;;;;;;;;5053493;28;20182;-72
2022/12/28 13:25:30;;;;;;;3.30;2.17;;;;;;;;;;5052056;28;20209;-71
2022/12/28 13:27:56;;;;;;;4.83;1.90;;;;;;;;;;5053307;28;20189;-71
2022/12/28 13:30:23;;;;;;;4.75;2.30;;;;;;;;;;5050789;28;20393;-71
2022/12/28 13:32:51;;;;;;;5.53;2.60;;;;;;;;;;5050831;28;20374;-71
2022/12/28 13:35:18;;;;;;;6.82;2.90;;;;;;;;;;5052235;28;20382;-71
2022/12/28 13:37:57;;;;;;;6.90;3.10;;;;;;;;;;5052062;28;20773;-69
2022/12/28 13:40:23;;;;;;;5.18;2.40;;;;;;;;;;5050913;28;20434;-71
2022/12/28 13:42:56;;;;;;;3.47;2.10;;;;;;;;;;5052061;28;20374;-69
2022/12/28 13:45:22;;;;;;;6.85;2.70;;;;;;;;;;5052296;28;20407;-71
2022/12/28 13:47:51;;;;;;;6.40;2.40;;;;;;;;;;5052231;28;20377;-70
2022/12/28 13:50:20;;;;;;;22.38;15.60;;;;;;;;;;5057687;28;20755;-70
2022/12/28 13:52:51;;;;;;;4.40;2.40;;;;;;;;;;5061463;28;20442;-70
2022/12/28 13:55:23;;;;;;;7.68;2.50;;;;;;;;;;5061476;28;20469;-70
2022/12/28 13:57:51;;;;;;;3.63;2.00;;;;;;;;;;5060762;28;20477;-71
2022/12/28 14:00:18;;;;;;;3.80;2.00;;;;;;;;;;5060477;28;20453;-71
2022/12/28 14:02:44;;;;;;;4.47;2.47;;;;;;;;;;5057502;28;20484;-69
2022/12/28 14:05:18;;;;;;;4.65;2.10;;;;;;;;;;5051102;28;20389;-69
2022/12/28 14:07:44;;;;;;;2.60;2.30;;;;;;;;;;5053654;28;20507;-70
2022/12/28 14:10:10;;;;;;;3.22;2.30;;;;;;;;;;5054278;28;20440;-69
2022/12/28 14:12:36;;;;;;;6.28;2.28;;;;;;;;;;5056046;28;20378;-69
2022/12/28 14:15:03;;;;;;;4.75;2.13;;;;;;;;;;5055778;28;20464;-70
2022/12/28 14:17:29;;;;;;;4.70;2.00;;;;;;;;;;5057035;28;20252;-70
2022/12/28 14:19:57;;;;;;;4.73;2.33;;;;;;;;;;5055947;28;20654;-69
2022/12/28 14:22:26;;;;;;;3.70;1.80;;;;;;;;;;5057133;28;20178;-69
2022/12/28 14:25:03;;;;;;;5.17;2.10;;;;;;;;;;5057653;28;20260;-70
2022/12/28 14:27:29;;;;;;;3.07;2.07;;;;;;;;;;5056963;28;20174;-69
2022/12/28 14:29:57;;;;;;;4.40;2.13;;;;;;;;;;5055921;28;20531;-70
2022/12/28 14:32:23;;;;;;;4.33;2.27;;;;;;;;;;5056650;28;20812;-69
2022/12/28 14:34:49;;;;;;;5.10;2.30;;;;;;;;;;5056541;28;20190;-68
2022/12/28 14:37:30;;;;;;;3.57;2.10;;;;;;;;;;5055237;28;20628;-70
2022/12/28 14:40:01;;;;;;;5.87;2.47;;;;;;;;;;5056411;28;20611;-70
2022/12/28 14:42:28;;;;;;;6.32;2.70;;;;;;;;;;5053948;28;20426;-70
2022/12/28 14:44:54;;;;;;;3.08;2.10;;;;;;;;;;5053858;28;20423;-70
2022/12/28 14:47:36;;;;;;;6.40;2.80;;;;;;;;;;5054964;28;20853;-70
2022/12/28 14:50:23;;;;;;;5.55;2.55;;;;;;;;;;5055259;28;20420;-70
2022/12/28 14:52:49;;;;;;;5.72;2.53;;;;;;;;;;5053770;28;20409;-70
2022/12/28 14:55:30;;;;;;;6.20;2.63;;;;;;;;;;5053578;28;20407;-70
2022/12/28 14:57:58;;;;;;;4.78;2.30;;;;;;;;;;5053632;28;20473;-70
2022/12/28 15:00:26;;;;;;;4.97;2.35;;;;;;;;;;5055212;28;20377;-69
2022/12/28 15:02:52;;;;;;;5.40;2.58;;;;;;;;;;5055032;28;20825;-70
2022/12/28 15:05:34;;;;;;;4.97;2.47;;;;;;;;;;5053530;28;20381;-70
2022/12/28 15:08:00;;;;;;;6.00;2.50;;;;;;;;;;5053513;28;20444;-70
2022/12/28 15:10:26;;;;;;;6.07;2.72;;;;;;;;;;5053529;28;20374;-70
2022/12/28 15:12:53;;;;;;;6.80;2.67;;;;;;;;;;5054968;28;20803;-70
2022/12/28 15:15:19;;;;;;;5.65;2.40;;;;;;;;;;5053286;28;20959;-71
2022/12/28 15:17:45;;;;;;;4.77;2.33;;;;;;;;;;5054835;28;20444;-71
2022/12/28 15:20:11;;;;;;;4.68;2.22;;;;;;;;;;5054470;28;20388;-70